createdAt,value
2022-09-02T00:01:24.072Z,50.75
2022-09-02T00:03:51.901Z,51.40
2022-09-02T00:06:19.586Z,50.99
2022-09-02T00:08:47.063Z,51.14
2022-09-02T00:11:18.376Z,50.54
2022-09-02T00:13:47.775Z,50.58
2022-09-02T00:16:14.743Z,51.00
2022-09-02T00:18:45.737Z,50.29
2022-09-02T00:21:14.473Z,50.28
2022-09-02T00:23:43.147Z,52.13
2022-09-02T00:26:10.867Z,51.20
2022-09-02T00:28:38.525Z,51.78
2022-09-02T00:31:07.339Z,53.20
2022-09-02T00:33:34.503Z,52.84
2022-09-02T00:36:03.414Z,54.30
2022-09-02T00:38:33.921Z,54.54
2022-09-02T00:41:03.668Z,54.20
2022-09-02T00:44:00.625Z,53.08
2022-09-02T00:46:30.468Z,53.17
2022-09-02T00:49:03.890Z,52.84
2022-09-02T00:51:37.565Z,53.67
2022-09-02T00:54:06.422Z,53.03
2022-09-02T00:56:34.031Z,52.76
2022-09-02T00:59:01.401Z,52.80
2022-09-02T01:01:28.372Z,52.93
2022-09-02T01:03:55.460Z,52.37
2022-09-02T01:06:25.277Z,52.30
2022-09-02T01:08:58.173Z,51.04
2022-09-02T01:11:32.538Z,51.91
2022-09-02T01:13:59.797Z,52.79
2022-09-02T01:16:31.853Z,51.80
2022-09-02T01:19:02.089Z,52.26
2022-09-02T01:21:28.997Z,52.51
2022-09-02T01:23:56.106Z,53.76
2022-09-02T01:26:23.013Z,53.37
2022-09-02T01:28:49.806Z,53.27
2022-09-02T01:31:16.693Z,53.30
2022-09-02T01:33:43.585Z,52.68
2022-09-02T01:36:12.367Z,53.65
2022-09-02T01:38:39.267Z,52.80
2022-09-02T01:41:06.143Z,52.58
2022-09-02T01:43:33.020Z,52.83
2022-09-02T01:46:00.389Z,52.74
2022-09-02T01:48:27.337Z,53.60
2022-09-02T01:51:03.779Z,53.70
2022-09-02T01:53:31.964Z,53.79
2022-09-02T01:55:58.879Z,54.06
2022-09-02T01:58:25.767Z,54.01
2022-09-02T02:00:52.832Z,54.96
2022-09-02T02:03:20.795Z,54.64
2022-09-02T02:05:47.696Z,54.41
2022-09-02T02:08:14.524Z,54.89
2022-09-02T02:10:43.175Z,55.89
2022-09-02T02:13:11.006Z,54.75
2022-09-02T02:15:43.275Z,54.43
2022-09-02T02:18:11.489Z,54.62
2022-09-02T02:20:39.145Z,53.40
2022-09-02T02:23:07.085Z,53.49
2022-09-02T02:25:34.076Z,53.69
2022-09-02T02:28:01.005Z,53.34
2022-09-02T02:30:29.552Z,55.27
2022-09-02T02:32:56.493Z,55.49
2022-09-02T02:35:23.496Z,55.00
2022-09-02T02:37:50.958Z,53.85
2022-09-02T02:40:20.534Z,52.71
2022-09-02T02:42:48.296Z,53.07
2022-09-02T02:45:15.669Z,52.95
2022-09-02T02:47:46.314Z,53.71
2022-09-02T02:50:15.894Z,54.82
2022-09-02T02:52:43.034Z,54.16
2022-09-02T02:55:12.082Z,54.30
2022-09-02T02:57:40.223Z,53.68
2022-09-02T03:00:20.026Z,54.12
2022-09-02T03:02:47.213Z,53.71
2022-09-02T03:05:14.862Z,54.07
2022-09-02T03:07:42.665Z,56.32
2022-09-02T03:10:12.338Z,54.99
2022-09-02T03:12:39.855Z,54.23
2022-09-02T03:15:08.905Z,54.25
2022-09-02T03:17:35.833Z,54.09
2022-09-02T03:20:03.050Z,54.05
2022-09-02T03:22:29.839Z,54.23
2022-09-02T03:24:56.737Z,54.95
2022-09-02T03:27:23.856Z,54.91
2022-09-02T03:29:50.650Z,54.37
2022-09-02T03:32:17.532Z,54.84
2022-09-02T03:34:44.439Z,55.58
2022-09-02T03:37:11.288Z,55.00
2022-09-02T03:39:39.293Z,54.11
2022-09-02T03:42:06.527Z,54.18
2022-09-02T03:44:34.506Z,54.37
2022-09-02T03:47:01.726Z,54.69
2022-09-02T03:49:29.051Z,54.45
2022-09-02T03:51:55.935Z,54.23
2022-09-02T03:54:22.840Z,55.36
2022-09-02T03:56:49.986Z,55.40
2022-09-02T03:59:17.234Z,55.21
2022-09-02T04:01:45.012Z,55.59
2022-09-02T04:04:12.423Z,54.88
2022-09-02T04:06:39.327Z,54.54
2022-09-02T04:09:06.483Z,55.26
2022-09-02T04:11:33.346Z,54.32
2022-09-02T04:14:00.211Z,55.37
2022-09-02T04:16:29.918Z,55.81
2022-09-02T04:18:57.469Z,55.30
2022-09-02T04:21:25.920Z,55.42
2022-09-02T04:23:52.828Z,55.13
2022-09-02T04:26:20.541Z,54.99
2022-09-02T04:28:48.987Z,54.48
2022-09-02T04:31:18.710Z,54.54
2022-09-02T04:33:45.793Z,55.62
2022-09-02T04:36:16.656Z,54.48
2022-09-02T04:38:43.728Z,54.69
2022-09-02T04:41:19.476Z,55.33
2022-09-02T04:43:46.813Z,54.82
2022-09-02T04:46:15.732Z,54.59
2022-09-02T04:48:43.543Z,54.53
2022-09-02T04:51:13.461Z,54.91
2022-09-02T04:53:41.061Z,54.50
2022-09-02T04:56:11.536Z,53.88
2022-09-02T04:58:39.091Z,55.00
2022-09-02T05:01:08.115Z,55.44
2022-09-02T05:03:34.987Z,54.59
2022-09-02T05:06:04.745Z,56.32
2022-09-02T05:08:31.973Z,55.80
2022-09-02T05:10:59.413Z,56.69
2022-09-02T05:13:26.311Z,56.94
2022-09-02T05:15:53.251Z,57.28
2022-09-02T05:18:20.111Z,56.10
2022-09-02T05:20:46.923Z,57.73
2022-09-02T05:23:14.634Z,57.60
2022-09-02T05:25:41.958Z,57.49
2022-09-02T05:28:09.448Z,56.25
2022-09-02T05:30:37.849Z,56.10
2022-09-02T05:33:05.097Z,56.61
2022-09-02T05:35:33.277Z,57.64
2022-09-02T05:38:01.392Z,56.24
2022-09-02T05:40:28.880Z,54.92
2022-09-02T05:42:55.968Z,54.60
2022-09-02T05:45:24.201Z,55.15
2022-09-02T05:47:51.559Z,53.75
2022-09-02T05:50:18.548Z,52.21
2022-09-02T05:52:51.670Z,52.12
2022-09-02T05:55:18.787Z,51.63
2022-09-02T05:57:46.469Z,53.15
2022-09-02T06:00:18.145Z,52.78
2022-09-02T06:02:46.103Z,52.65
2022-09-02T06:05:13.401Z,52.11
2022-09-02T06:07:40.220Z,52.57
2022-09-02T06:10:08.841Z,51.68
2022-09-02T06:12:39.346Z,50.89
2022-09-02T06:15:10.568Z,50.85
2022-09-02T06:17:37.339Z,52.07
2022-09-02T06:20:04.770Z,50.71
2022-09-02T06:22:31.530Z,51.38
2022-09-02T06:24:58.376Z,51.66
2022-09-02T06:27:25.159Z,51.25
2022-09-02T06:29:52.145Z,50.45
2022-09-02T06:32:19.088Z,50.70
2022-09-02T06:34:45.990Z,51.96
2022-09-02T06:37:15.631Z,52.01
2022-09-02T06:39:45.654Z,53.17
2022-09-02T06:42:12.591Z,51.70
2022-09-02T06:44:39.478Z,50.53
2022-09-02T06:47:06.499Z,50.83
2022-09-02T06:49:34.049Z,51.21
2022-09-02T06:52:01.104Z,50.41
2022-09-02T06:54:28.115Z,50.82
2022-09-02T06:56:55.339Z,51.90
2022-09-02T06:59:22.936Z,50.67
2022-09-02T07:01:50.621Z,50.25
2022-09-02T07:04:36.982Z,49.92
2022-09-02T07:07:06.990Z,49.62
2022-09-02T07:09:34.648Z,49.34
2022-09-02T07:12:05.089Z,49.60
2022-09-02T07:14:37.109Z,50.04
2022-09-02T07:17:04.168Z,48.85
2022-09-02T07:19:31.618Z,48.65
2022-09-02T07:21:58.658Z,48.94
2022-09-02T07:24:25.573Z,48.18
2022-09-02T07:26:55.331Z,47.97
2022-09-02T07:29:23.388Z,47.60
2022-09-02T07:31:50.536Z,47.22
2022-09-02T07:34:19.813Z,48.24
2022-09-02T07:36:49.130Z,46.83
2022-09-02T07:39:18.530Z,48.41
2022-09-02T07:41:49.260Z,46.96
2022-09-02T07:44:18.898Z,45.94
2022-09-02T07:46:46.498Z,46.27
2022-09-02T07:49:15.777Z,44.67
2022-09-02T07:51:49.399Z,45.22
2022-09-02T07:54:19.569Z,45.58
2022-09-02T07:56:46.579Z,43.21
2022-09-02T07:59:13.761Z,43.72
2022-09-02T08:04:16.544Z,43.94
2022-09-02T08:06:43.528Z,43.53
2022-09-02T08:09:24.318Z,42.58
2022-09-02T08:11:56.008Z,41.91
2022-09-02T08:14:26.438Z,41.36
2022-09-02T08:16:54.831Z,40.41
2022-09-02T08:19:22.627Z,42.80
2022-09-02T08:21:49.608Z,41.53
2022-09-02T08:24:16.598Z,40.11
2022-09-02T08:26:43.549Z,39.32
2022-09-02T08:29:10.478Z,40.00
2022-09-02T08:31:38.360Z,38.67
2022-09-02T08:34:05.821Z,38.84
2022-09-02T08:36:32.798Z,39.13
2022-09-02T08:39:03.437Z,40.15
2022-09-02T08:41:44.136Z,37.65
2022-09-02T08:44:15.665Z,39.61
2022-09-02T08:46:43.058Z,37.39
2022-09-02T08:49:26.238Z,36.62
2022-09-02T08:52:00.995Z,38.72
2022-09-02T08:54:42.656Z,35.69
2022-09-02T08:57:10.742Z,36.74
2022-09-02T09:02:18.366Z,33.08
2022-09-02T09:05:23.359Z,32.96
2022-09-02T09:08:21.897Z,34.55
2022-09-02T09:10:57.196Z,36.33
2022-09-02T09:13:52.994Z,36.31
2022-09-02T09:16:35.464Z,33.92
2022-09-02T09:19:15.717Z,35.11
2022-09-02T09:21:44.128Z,35.70
2022-09-02T09:24:37.078Z,37.98
2022-09-02T09:27:13.507Z,35.24
2022-09-02T09:29:40.438Z,33.40
2022-09-02T09:32:23.126Z,36.45
2022-09-02T09:35:17.268Z,35.50
2022-09-02T09:37:52.478Z,33.30
2022-09-02T09:40:20.631Z,33.96
2022-09-02T09:42:55.550Z,35.30
2022-09-02T09:45:33.491Z,36.00
2022-09-02T09:48:30.029Z,37.45
2022-09-02T09:50:56.838Z,36.05
2022-09-02T09:53:28.074Z,34.49
2022-09-02T09:56:06.801Z,35.39
2022-09-02T09:58:40.123Z,34.93
2022-09-02T10:01:31.203Z,36.53
2022-09-02T10:04:43.987Z,34.84
2022-09-02T10:07:13.722Z,34.79
2022-09-02T10:09:41.357Z,38.27
2022-09-02T10:12:11.357Z,36.82
2022-09-02T10:14:48.655Z,36.83
2022-09-02T10:17:33.601Z,36.01
2022-09-02T10:20:09.447Z,34.36
2022-09-02T10:23:00.076Z,34.35
2022-09-02T10:25:39.438Z,32.31
2022-09-02T10:28:34.168Z,37.54
2022-09-02T10:31:18.166Z,35.29
2022-09-02T10:33:45.848Z,34.13
2022-09-02T10:36:29.528Z,32.24
2022-09-02T10:39:06.947Z,34.08
2022-09-02T10:44:36.909Z,32.45
2022-09-02T10:47:19.348Z,36.45
2022-09-02T10:49:56.545Z,35.27
2022-09-02T10:52:47.675Z,32.10
2022-09-02T10:55:42.761Z,30.93
2022-09-02T10:58:41.161Z,35.10
2022-09-02T11:01:12.539Z,33.92
2022-09-02T11:03:57.608Z,32.24
2022-09-02T11:06:40.351Z,31.56
2022-09-02T11:09:16.291Z,32.97
2022-09-02T11:12:00.077Z,29.68
2022-09-02T11:14:45.320Z,29.65
2022-09-02T11:17:28.879Z,31.47
2022-09-02T11:20:04.156Z,31.99
2022-09-02T11:22:58.001Z,30.22
2022-09-02T11:25:30.438Z,29.18
2022-09-02T11:28:23.736Z,31.24
2022-09-02T11:31:15.939Z,30.74
2022-09-02T11:33:48.790Z,30.49
2022-09-02T11:36:17.238Z,29.58
2022-09-02T11:39:00.949Z,30.07
2022-09-02T11:41:33.983Z,31.45
2022-09-02T11:44:34.074Z,29.83
2022-09-02T11:47:30.658Z,33.04
2022-09-02T11:50:18.155Z,30.69
2022-09-02T11:53:12.689Z,30.58
2022-09-02T11:55:49.551Z,31.53
2022-09-02T11:58:36.868Z,29.49
2022-09-02T12:01:25.809Z,31.03
2022-09-02T12:07:10.235Z,30.02
2022-09-02T12:09:49.668Z,29.88
2022-09-02T12:12:39.841Z,29.70
2022-09-02T12:15:07.334Z,29.35
2022-09-02T12:17:50.007Z,30.31
2022-09-02T12:20:39.143Z,31.76
2022-09-02T12:23:09.309Z,29.09
2022-09-02T12:25:42.511Z,30.93
2022-09-02T12:28:27.588Z,29.82
2022-09-02T12:30:57.701Z,28.26
2022-09-02T12:33:32.739Z,30.29
2022-09-02T12:36:00.122Z,29.00
2022-09-02T12:38:31.379Z,28.12
2022-09-02T12:41:12.360Z,27.23
2022-09-02T12:43:44.735Z,28.46
2022-09-02T12:46:31.009Z,27.53
2022-09-02T12:49:12.099Z,29.28
2022-09-02T12:51:59.944Z,30.25
2022-09-02T12:54:39.988Z,29.36
2022-09-02T12:57:09.033Z,30.30
2022-09-02T12:59:41.728Z,29.09
2022-09-02T13:02:17.292Z,29.99
2022-09-02T13:05:02.148Z,30.50
2022-09-02T13:08:06.609Z,30.77
2022-09-02T13:11:20.880Z,30.47
2022-09-02T13:13:56.824Z,31.95
2022-09-02T13:16:41.997Z,32.09
2022-09-02T13:19:36.765Z,31.36
2022-09-02T13:22:15.541Z,30.20
2022-09-02T13:24:59.582Z,31.15
2022-09-02T13:28:04.660Z,29.49
2022-09-02T13:30:38.194Z,31.61
2022-09-02T13:33:15.433Z,32.53
2022-09-02T13:35:43.139Z,31.42
2022-09-02T13:38:12.947Z,31.52
2022-09-02T13:40:41.326Z,33.79
2022-09-02T13:43:14.208Z,30.31
2022-09-02T13:45:41.720Z,32.06
2022-09-02T13:48:17.944Z,30.55
2022-09-02T13:50:50.905Z,29.91
2022-09-02T13:53:54.085Z,33.19
2022-09-02T13:56:15.567Z,31.26
2022-09-02T13:58:53.898Z,30.43
2022-09-02T14:01:27.714Z,28.98
2022-09-02T14:03:57.907Z,31.23
2022-09-02T14:06:29.898Z,30.78
2022-09-02T14:09:03.089Z,30.05
2022-09-02T14:11:41.948Z,32.25
2022-09-02T14:14:14.079Z,30.44
2022-09-02T14:16:40.910Z,30.19
2022-09-02T14:19:16.947Z,31.76
2022-09-02T14:21:59.250Z,31.00
2022-09-02T14:24:37.287Z,32.55
2022-09-02T14:27:04.428Z,31.02
2022-09-02T14:29:32.290Z,30.92
2022-09-02T14:32:15.741Z,31.03
2022-09-02T14:34:47.647Z,31.84
2022-09-02T14:37:28.876Z,30.00
2022-09-02T14:40:11.715Z,30.31
2022-09-02T14:42:56.543Z,31.62
2022-09-02T14:45:33.049Z,30.56
2022-09-02T14:48:11.209Z,32.18
2022-09-02T14:50:39.799Z,30.95
2022-09-02T14:53:09.335Z,31.63
2022-09-02T14:55:47.045Z,33.00
2022-09-02T14:58:15.365Z,31.39
2022-09-02T15:00:46.188Z,32.51
2022-09-02T15:03:16.690Z,34.48
2022-09-02T15:05:44.006Z,33.09
2022-09-02T15:08:11.590Z,33.60
2022-09-02T15:10:43.734Z,34.52
2022-09-02T15:13:22.931Z,34.91
2022-09-02T15:15:52.083Z,35.17
2022-09-02T15:18:19.137Z,35.84
2022-09-02T15:20:45.989Z,34.51
2022-09-02T15:23:12.916Z,34.59
2022-09-02T15:25:40.223Z,34.73
2022-09-02T15:28:07.128Z,35.99
2022-09-02T15:30:37.406Z,34.82
2022-09-02T15:33:08.133Z,35.45
2022-09-02T15:35:43.384Z,36.37
2022-09-02T15:38:10.183Z,36.74
2022-09-02T15:40:36.972Z,35.31
2022-09-02T15:43:03.742Z,35.55
2022-09-02T15:45:31.367Z,35.51
2022-09-02T15:47:59.242Z,35.50
2022-09-02T15:50:27.501Z,35.51
2022-09-02T15:52:56.126Z,36.42
2022-09-02T15:55:28.998Z,36.11
2022-09-02T15:57:56.335Z,35.44
2022-09-02T16:00:23.325Z,37.01
2022-09-02T16:02:54.837Z,36.09
2022-09-02T16:05:21.582Z,37.03
2022-09-02T16:07:48.717Z,36.51
2022-09-02T16:10:15.794Z,36.81
2022-09-02T16:12:42.982Z,37.82
2022-09-02T16:15:09.920Z,37.20
2022-09-02T16:17:36.875Z,36.93
2022-09-02T16:20:05.206Z,36.30
2022-09-02T16:22:31.958Z,35.18
2022-09-02T16:24:58.751Z,35.73
2022-09-02T16:27:44.093Z,35.30
2022-09-02T16:30:11.402Z,35.72
2022-09-02T16:32:38.123Z,35.89
2022-09-02T16:35:05.341Z,36.13
2022-09-02T16:37:32.231Z,35.62
2022-09-02T16:39:59.054Z,37.38
2022-09-02T16:42:26.211Z,35.35
2022-09-02T16:44:53.015Z,37.13
2022-09-02T16:47:19.946Z,36.74
2022-09-02T16:49:46.786Z,36.85
2022-09-02T16:52:14.022Z,36.49
2022-09-02T16:54:41.361Z,36.96
2022-09-02T16:57:09.133Z,37.68
2022-09-02T16:59:36.161Z,37.89
2022-09-02T17:02:03.067Z,37.14
2022-09-02T17:04:29.925Z,36.83
2022-09-02T17:06:57.132Z,37.26
2022-09-02T17:09:23.948Z,36.70
2022-09-02T17:11:53.841Z,36.72
2022-09-02T17:14:21.792Z,36.75
2022-09-02T17:16:50.955Z,37.42
2022-09-02T17:19:22.986Z,37.50
2022-09-02T17:21:51.013Z,37.43
2022-09-02T17:24:19.917Z,36.94
2022-09-02T17:26:50.819Z,37.32
2022-09-02T17:32:09.701Z,36.58
2022-09-02T17:34:37.237Z,36.67
2022-09-02T17:37:05.452Z,40.58
2022-09-02T17:39:34.515Z,39.91
2022-09-02T17:42:03.109Z,39.11
2022-09-02T17:44:33.659Z,38.62
2022-09-02T17:47:01.323Z,38.95
2022-09-02T17:49:29.396Z,39.47
2022-09-02T17:51:57.789Z,39.89
2022-09-02T17:54:26.069Z,39.57
2022-09-02T17:57:08.807Z,39.35
2022-09-02T18:00:03.989Z,39.40
2022-09-02T18:02:37.639Z,39.45
2022-09-02T18:05:29.401Z,39.66
2022-09-02T18:08:02.969Z,39.46
2022-09-02T18:10:39.126Z,40.33
2022-09-02T18:13:13.823Z,39.80
2022-09-02T18:15:54.629Z,40.11
2022-09-02T18:18:21.729Z,39.90
2022-09-02T18:20:57.478Z,39.67
2022-09-02T18:23:41.823Z,40.52
2022-09-02T18:26:36.393Z,41.07
2022-09-02T18:29:15.373Z,42.04
2022-09-02T18:32:03.208Z,43.51
2022-09-02T18:34:38.770Z,43.80
2022-09-02T18:37:16.652Z,43.37
2022-09-02T18:39:52.507Z,43.39
2022-09-02T18:42:51.234Z,43.20
2022-09-02T18:45:43.286Z,42.70
2022-09-02T18:48:16.911Z,43.30
2022-09-02T18:50:58.961Z,44.60
2022-09-02T18:53:32.553Z,44.28
2022-09-02T18:56:06.074Z,44.85
2022-09-02T18:58:48.312Z,44.66
2022-09-02T19:01:23.875Z,45.27
2022-09-02T19:03:51.350Z,43.93
2022-09-02T19:06:36.144Z,45.02
2022-09-02T19:09:13.394Z,45.31
2022-09-02T19:11:40.869Z,45.31
2022-09-02T19:14:30.109Z,45.04
2022-09-02T19:16:58.509Z,45.16
2022-09-02T19:19:27.738Z,47.46
2022-09-02T19:21:58.115Z,48.62
2022-09-02T19:24:34.061Z,48.31
2022-09-02T19:27:15.428Z,48.10
2022-09-02T19:29:48.129Z,47.43
2022-09-02T19:32:15.470Z,46.29
2022-09-02T19:34:45.303Z,50.76
2022-09-02T19:37:14.489Z,48.85
2022-09-02T19:39:41.530Z,47.63
2022-09-02T19:42:09.464Z,48.97
2022-09-02T19:44:36.377Z,48.91
2022-09-02T19:49:50.063Z,49.60
2022-09-02T19:52:16.965Z,49.22
2022-09-02T19:54:44.140Z,48.93
2022-09-02T19:57:11.098Z,48.30
2022-09-02T19:59:37.945Z,47.70
2022-09-02T20:02:06.541Z,47.77
2022-09-02T20:04:33.505Z,48.23
2022-09-02T20:07:01.143Z,48.58
2022-09-02T20:09:29.298Z,49.43
2022-09-02T20:11:56.696Z,50.20
2022-09-02T20:14:24.316Z,49.86
2022-09-02T20:16:58.263Z,51.21
2022-09-02T20:19:26.460Z,52.43
2022-09-02T20:21:53.847Z,53.72
2022-09-02T20:24:32.547Z,53.23
2022-09-02T20:27:21.813Z,53.76
2022-09-02T20:30:09.566Z,55.28
2022-09-02T20:32:52.094Z,56.65
2022-09-02T20:35:37.720Z,57.57
2022-09-02T20:38:23.434Z,57.52
2022-09-02T20:41:02.564Z,57.98
2022-09-02T20:43:45.474Z,57.21
2022-09-02T20:46:40.539Z,57.44
2022-09-02T20:49:26.842Z,56.48
2022-09-02T20:52:02.560Z,56.62
2022-09-02T20:54:51.466Z,55.80
2022-09-02T20:57:20.795Z,55.62
2022-09-02T20:59:47.877Z,55.20
2022-09-02T21:02:18.749Z,54.62
2022-09-02T21:04:53.012Z,54.62
2022-09-02T21:07:38.599Z,53.82
2022-09-02T21:10:25.478Z,54.11
2022-09-02T21:13:07.701Z,54.49
2022-09-02T21:15:49.015Z,54.77
2022-09-02T21:18:40.614Z,54.44
2022-09-02T21:21:30.097Z,53.34
2022-09-02T21:24:29.338Z,54.79
2022-09-02T21:27:12.596Z,54.07
2022-09-02T21:29:51.316Z,53.60
2022-09-02T21:32:26.157Z,53.11
2022-09-02T21:34:58.681Z,54.41
2022-09-02T21:37:27.722Z,54.83
2022-09-02T21:39:58.558Z,53.73
2022-09-02T21:42:35.971Z,53.62
2022-09-02T21:45:34.243Z,54.58
2022-09-02T21:48:31.097Z,54.47
2022-09-02T21:51:05.208Z,52.90
2022-09-02T21:53:56.230Z,53.46
2022-09-02T21:56:54.519Z,52.95
2022-09-02T21:59:37.901Z,53.17
2022-09-02T22:02:16.774Z,56.02
2022-09-02T22:04:52.829Z,55.79
2022-09-02T22:07:44.932Z,57.63
2022-09-02T22:10:26.781Z,56.20
2022-09-02T22:12:55.764Z,55.82
2022-09-02T22:15:33.611Z,55.39
2022-09-02T22:18:39.619Z,55.97
2022-09-02T22:21:31.458Z,55.14
2022-09-02T22:24:01.131Z,55.89
2022-09-02T22:26:52.255Z,55.54
2022-09-02T22:29:41.132Z,57.50
2022-09-02T22:32:12.282Z,57.22
2022-09-02T22:34:49.827Z,56.86
2022-09-02T22:37:24.408Z,56.66
2022-09-02T22:39:54.232Z,59.32
2022-09-02T22:42:33.534Z,58.31
2022-09-02T22:45:24.813Z,59.43
2022-09-02T22:48:17.313Z,59.58
2022-09-02T22:51:08.419Z,62.54
2022-09-02T22:53:35.220Z,61.34
2022-09-02T22:56:05.066Z,61.79
2022-09-02T22:59:03.894Z,62.24
2022-09-02T23:01:51.700Z,61.88
2022-09-02T23:04:25.174Z,62.01
2022-09-02T23:07:01.981Z,62.60
2022-09-02T23:09:28.744Z,62.42
2022-09-02T23:12:12.753Z,62.07
2022-09-02T23:14:51.564Z,62.10
2022-09-02T23:17:38.922Z,61.60
2022-09-02T23:20:28.372Z,61.00
2022-09-02T23:23:18.043Z,60.44
2022-09-02T23:26:09.951Z,60.61
2022-09-02T23:28:45.781Z,60.86
2022-09-02T23:31:43.757Z,61.11
2022-09-02T23:34:28.239Z,61.21
2022-09-02T23:37:36.697Z,59.58
2022-09-02T23:40:12.828Z,59.13
2022-09-02T23:42:39.733Z,58.31
2022-09-02T23:45:27.173Z,58.33
2022-09-02T23:48:17.363Z,58.19
2022-09-02T23:50:45.949Z,59.17
2022-09-02T23:53:30.247Z,59.48
2022-09-02T23:56:24.405Z,61.33
2022-09-02T23:59:03.154Z,63.14
